Terminal Aerodrome Forecast
Issued by NWS

Home | Current Version | Previous Version | Text Only | Print | Product List | Glossary On
Versions: 1 2 3 4 5 6 7 8 9 10 11 12 13 14 15 16 17 18 19 20 21 22 23 24 25 26 27 28 29 30 31 32
000
FTAK31 PAJK 200535
TAFASI
TAF
PASI 200535Z 2006/2106 VRB06KT P6SM VCSH SCT025 OVC060
      TEMPO 2006/2010 4SM SHRA BR BKN025 OVC060
     FM201000 13006KT P6SM VCSH OVC050
     FM201400 12008KT P6SM -SHRA SCT025 OVC050
     FM201800 14009KT P6SM VCSH OVC050=

USA.gov is the U.S. government's official web portal to all federal, state and local government web resources and services.